AirNav   TITAN Aviation Fuels
 
 584 users online  

1FA9 Villa Char Mar Airport
Fort Meade, Florida, USA

GOING TO FORT MEADE?


FAA INFORMATION EFFECTIVE 26 JANUARY 2023

Location

FAA Identifier: 1FA9
Lat/Long: 27-47-06.0000N 081-39-04.0000W
27-47.100000N 081-39.066667W
27.7850000,-81.6511111
(estimated)
Elevation: 134 ft. / 41 m (estimated)
From city: 7 miles SW of FORT MEADE, FL
Time zone: UTC -5 (UTC -4 during Daylight Saving Time)
Zip code: 33843

Airport Operations

Airport use: Private use. Permission required prior to landing
Activation date: 03/2011
Control tower: no
ARTCC: MIAMI CENTER
FSS: SAINT PETERSBURG FLIGHT SERVICE STATION
Attendance: UNATNDD
Wind indicator: yes
Segmented circle: no

Airport Communications

WX AWOS-3 at X07 (7 nm N): 124.225 (863-678-1334)
WX AWOS-3 at BOW (12 nm NW): 123.775 (863-533-9004)
WX AWOS-3 at AVO (13 nm SE): 118.725 (863-453-4223)
WX ASOS at GIF (18 nm N): 133.675 (863-956-2097)

Nearby radio navigation aids

VOR radial/distance  VOR name  Freq  Var
LALr121/22.7LAKELAND VORTAC116.0001E

Airport Services

Runway Information

Runway 18/36

Dimensions: 2650 x 25 ft. / 808 x 8 m
Surface: asphalt
RUNWAY 18  RUNWAY 36
Traffic pattern: leftright

Helipad H1

Dimensions: 40 x 40 ft. / 12 x 12 m
Surface: turf
Traffic pattern: leftleft

Airport Ownership and Management from official FAA records

Ownership: Privately-owned
Owner: MARC ROCHETTE
1901 BUFFUM LAKE TRAIL
FT. MEADE, FL 33841
Phone 650-773-4599
Manager: MARC ROCHETTE
1901 BUFFUM LAKE TRAIL
FT. MEADE, FL 33841
Phone 650-773-4599

Airport Operational Statistics

Aircraft based on the field: 3
Single engine airplanes: 1
Helicopters: 1
Ultralights: 1
    

Additional Remarks

FOR CD CTC MIAMI ARTCC AT 305-716-1731.

Instrument Procedures

There are no published instrument procedures at 1FA9.

Some nearby airports with instrument procedures:

X07 - Lake Wales Municipal Airport (7 nm N)
KBOW - Bartow Executive Airport (12 nm NW)
KAVO - Avon Park Executive Airport (13 nm SE)
KGIF - Winter Haven Regional Airport (18 nm N)
KCHN - Wauchula Municipal Airport (20 nm SW)
 
Loc | Ops | Rwys | IFR | FBO | Links
Com | Nav | Svcs | Stats | Notes

Reliance Aviation
AirBoss

 
Aerial photo
No photo
 
Sectional chart

 
Airport distance calculator
Flying to Villa Char Mar Airport? Find the distance to fly.

From to 1FA9

Sunrise and sunset
Times for 29-Jan-2023
 Local
(UTC-5)
 Zulu
(UTC)
Morning civil twilight06:5111:51
Sunrise07:1612:16
Sunset18:0423:04
Evening civil twilight18:2823:28

Current date and time
Zulu (UTC)  29-Jan-2023 09:47:48
Local (UTC-5)  29-Jan-2023 04:47:48
 
METAR
KX07 
7nm N 
290935Z AUTO 10004KT 10SM CLR 16/15 A3024 RMK A01
KBOW 
11nm NW 
282150Z 09012KT 10SM BKN030 20/13 A3027
KGIF 
18nm N 
290853Z AUTO 07004KT 10SM BKN070 15/13 A3025 RMK AO2 SLP243 T01500133 58010
KAGR 
19nm SE 
290855Z AUTO 07004KT 9SM M 15/15 A3024 RMK AO2 SLP242 T01530147 CHINO RWY23 $
TAF
KLAL 
22nm NW 
290537Z 2906/3006 07005KT P6SM SCT040 BKN080 FM291400 12008KT P6SM SCT035 BKN250 FM300100 VRB04KT P6SM FEW040 SCT250 AMD NOT SKED TIL 291200
NOTAMs
Click for the latest NOTAMs
NOTAMs are issued by the DoD/FAA and will open in a separate window not controlled by AirNav.

 

 
 

Would you like to see your business listed on this page?

 If your business provides an interesting product or service to pilots, flight crews, aircraft, or users of the Villa Char Mar Airport, you should consider listing it here.  To start the listing process, click on the button below
 
Add a business
 

Other Pages about Villa Char Mar Airport

Update a link
 
Copyright © AirNav, LLC. All rights reserved. Privacy Policy  Contact